Time;durP1;ratioP1;P1;durP2;ratioP2;P2;SDS_P1;SDS_P2;PMS_P1;PMS_P2;Temp;Humidity;BMP_temperature;BMP_pressure;BME280_temperature;BME280_humidity;BME280_pressure;Samples;Min_cycle;Max_cycle;Signal;HPM_P1;HPM_P2
2022/06/14 00:00:55;;;;;;;6.43;3.47;;;;;;;;;;5068303;28;20025;-71
2022/06/14 00:03:29;;;;;;;9.05;3.50;;;;;;;;;;5059271;28;20496;-71
2022/06/14 00:05:56;;;;;;;4.78;2.80;;;;;;;;;;5063955;28;20044;-71
2022/06/14 00:08:25;;;;;;;4.28;2.85;;;;;;;;;;5054227;28;20028;-71
2022/06/14 00:10:51;;;;;;;8.35;3.13;;;;;;;;;;5062487;28;20107;-71
2022/06/14 00:13:18;;;;;;;6.22;3.42;;;;;;;;;;5052308;28;20111;-72
2022/06/14 00:15:45;;;;;;;7.50;3.40;;;;;;;;;;5052029;28;20081;-71
2022/06/14 00:18:12;;;;;;;4.07;3.00;;;;;;;;;;5059359;28;20471;-71
2022/06/14 00:20:38;;;;;;;4.05;2.90;;;;;;;;;;5056745;28;20412;-71
2022/06/14 00:23:04;;;;;;;4.88;3.00;;;;;;;;;;5055473;28;20108;-71
2022/06/14 00:25:32;;;;;;;5.50;3.28;;;;;;;;;;5051904;28;20032;-71
2022/06/14 00:27:59;;;;;;;5.10;3.25;;;;;;;;;;5058392;28;20941;-71
2022/06/14 00:30:25;;;;;;;8.05;3.13;;;;;;;;;;5054691;28;20017;-72
2022/06/14 00:32:51;;;;;;;4.90;3.25;;;;;;;;;;5057774;28;21296;-70
2022/06/14 00:35:18;;;;;;;3.85;2.70;;;;;;;;;;5058075;28;20036;-71
2022/06/14 00:37:44;;;;;;;4.50;2.88;;;;;;;;;;5053134;28;20073;-71
2022/06/14 00:40:12;;;;;;;3.80;2.80;;;;;;;;;;5053751;28;20017;-71
2022/06/14 00:42:38;;;;;;;6.60;2.92;;;;;;;;;;5053114;28;20436;-71
2022/06/14 00:45:27;;;;;;;6.80;3.25;;;;;;;;;;5057423;28;20013;-71
2022/06/14 00:47:53;;;;;;;3.28;2.60;;;;;;;;;;5054084;28;20077;-71
2022/06/14 00:50:25;;;;;;;5.55;3.13;;;;;;;;;;5056533;28;20031;-71
2022/06/14 00:52:53;;;;;;;5.53;2.72;;;;;;;;;;5055806;28;20040;-71
2022/06/14 00:55:30;;;;;;;4.55;2.75;;;;;;;;;;5052654;28;20587;-71
2022/06/14 00:58:05;;;;;;;4.50;3.13;;;;;;;;;;5056821;28;20527;-71
2022/06/14 01:00:34;;;;;;;4.93;3.03;;;;;;;;;;5060710;28;20108;-72
2022/06/14 01:03:04;;;;;;;4.20;3.20;;;;;;;;;;5051962;28;20474;-71
2022/06/14 01:06:05;;;;;;;6.13;4.00;;;;;;;;;;5061864;28;20045;-71
2022/06/14 01:08:19;;;;;;;7.53;4.00;;;;;;;;;;5055599;28;20063;-71
2022/06/14 01:10:47;;;;;;;4.85;3.70;;;;;;;;;;5055660;28;20410;-71
2022/06/14 01:13:16;;;;;;;4.97;3.40;;;;;;;;;;5064596;28;20037;-71
2022/06/14 01:15:42;;;;;;;5.65;3.35;;;;;;;;;;5055797;28;20020;-71
2022/06/14 01:18:11;;;;;;;3.50;3.20;;;;;;;;;;5058907;28;20617;-72
2022/06/14 01:20:37;;;;;;;6.03;3.33;;;;;;;;;;5061089;28;20468;-73
2022/06/14 01:23:06;;;;;;;6.57;3.10;;;;;;;;;;5053909;28;20029;-72
2022/06/14 01:25:34;;;;;;;4.47;3.15;;;;;;;;;;5054006;28;20044;-72
2022/06/14 01:28:02;;;;;;;4.65;3.10;;;;;;;;;;5051982;28;20024;-72
2022/06/14 01:30:31;;;;;;;8.05;3.28;;;;;;;;;;5045664;28;20507;-71
2022/06/14 01:33:00;;;;;;;5.18;3.20;;;;;;;;;;5054290;28;20717;-73
2022/06/14 01:35:28;;;;;;;4.68;3.08;;;;;;;;;;5049779;28;20032;-72
2022/06/14 01:37:55;;;;;;;3.67;2.97;;;;;;;;;;5052592;28;20045;-73
2022/06/14 01:40:25;;;;;;;6.07;3.30;;;;;;;;;;5043955;28;20032;-72
2022/06/14 01:42:54;;;;;;;4.60;4.10;;;;;;;;;;5045446;28;20699;-73
2022/06/14 01:45:20;;;;;;;4.38;3.65;;;;;;;;;;5047351;28;20025;-73
2022/06/14 01:47:49;;;;;;;6.45;3.67;;;;;;;;;;5053778;28;20028;-73
2022/06/14 01:53:24;;;;;;;4.65;3.35;;;;;;;;;;5080145;28;20089;-72
2022/06/14 01:56:09;;;;;;;6.15;3.53;;;;;;;;;;5017744;28;20371;-73
2022/06/14 01:58:47;;;;;;;5.72;3.40;;;;;;;;;;5066166;28;20072;-72
2022/06/14 02:01:14;;;;;;;6.65;3.95;;;;;;;;;;5067213;28;20021;-73
2022/06/14 02:06:33;;;;;;;5.47;4.00;;;;;;;;;;5072455;28;20098;-73
2022/06/14 02:09:07;;;;;;;4.22;3.35;;;;;;;;;;5075798;28;20376;-73
2022/06/14 02:11:34;;;;;;;5.22;3.35;;;;;;;;;;5074268;28;20456;-71
2022/06/14 02:14:23;;;;;;;5.85;3.53;;;;;;;;;;5056582;28;20392;-72
2022/06/14 02:17:08;;;;;;;4.05;3.60;;;;;;;;;;5053398;28;20048;-73
2022/06/14 02:19:36;;;;;;;7.72;3.97;;;;;;;;;;5051546;28;20464;-73
2022/06/14 02:22:05;;;;;;;3.67;3.30;;;;;;;;;;5064724;28;20523;-71
2022/06/14 02:24:43;;;;;;;5.28;3.60;;;;;;;;;;5065747;28;20024;-71
2022/06/14 02:27:15;;;;;;;4.43;3.85;;;;;;;;;;5065715;28;20028;-72
2022/06/14 02:29:48;;;;;;;7.78;3.45;;;;;;;;;;5067230;28;20039;-71
2022/06/14 02:32:18;;;;;;;6.03;3.65;;;;;;;;;;5066984;28;20201;-71
2022/06/14 02:34:48;;;;;;;6.78;3.80;;;;;;;;;;5067036;28;20051;-71
2022/06/14 02:37:34;;;;;;;4.93;3.55;;;;;;;;;;5066968;28;20109;-71
2022/06/14 02:40:04;;;;;;;8.48;3.55;;;;;;;;;;5025719;28;20732;-71
2022/06/14 02:42:34;;;;;;;6.82;4.07;;;;;;;;;;5026756;28;20021;-71
2022/06/14 02:45:26;;;;;;;6.15;4.30;;;;;;;;;;5027414;28;20033;-71
2022/06/14 02:47:59;;;;;;;5.68;4.15;;;;;;;;;;5024268;28;20033;-71
2022/06/14 02:50:33;;;;;;;6.35;4.32;;;;;;;;;;5027126;28;20500;-72
2022/06/14 02:53:06;;;;;;;5.07;4.00;;;;;;;;;;5025226;28;20587;-72
2022/06/14 02:55:43;;;;;;;9.07;3.85;;;;;;;;;;5025048;28;20028;-71
2022/06/14 02:58:11;;;;;;;6.93;4.30;;;;;;;;;;5027062;28;20104;-71
2022/06/14 03:00:48;;;;;;;5.93;4.05;;;;;;;;;;5024842;28;20033;-71
2022/06/14 03:03:18;;;;;;;5.90;4.05;;;;;;;;;;5026483;28;20125;-71
2022/06/14 03:05:48;;;;;;;8.07;4.35;;;;;;;;;;5027210;28;20169;-71
2022/06/14 03:08:21;;;;;;;4.78;3.80;;;;;;;;;;5026632;28;20025;-71
2022/06/14 03:10:47;;;;;;;5.75;4.35;;;;;;;;;;5027100;28;20037;-71
2022/06/14 03:13:16;;;;;;;7.18;5.00;;;;;;;;;;5026962;28;20312;-71
2022/06/14 03:15:49;;;;;;;7.22;4.38;;;;;;;;;;5024709;28;20037;-71
2022/06/14 03:18:30;;;;;;;5.80;4.47;;;;;;;;;;5022832;28;20429;-71
2022/06/14 03:21:02;;;;;;;5.68;4.60;;;;;;;;;;5024219;28;20473;-71
2022/06/14 03:23:31;;;;;;;6.60;4.28;;;;;;;;;;5024000;28;20017;-71
2022/06/14 03:26:14;;;;;;;5.72;4.40;;;;;;;;;;5022700;28;20172;-71
2022/06/14 03:28:50;;;;;;;6.25;4.70;;;;;;;;;;5024097;28;20033;-72
2022/06/14 03:31:19;;;;;;;6.03;4.47;;;;;;;;;;5023831;28;20390;-72
2022/06/14 03:33:57;;;;;;;5.25;4.30;;;;;;;;;;5023703;28;20124;-71
2022/06/14 03:36:23;;;;;;;5.90;4.30;;;;;;;;;;5024061;28;20040;-71
2022/06/14 03:38:54;;;;;;;6.75;4.47;;;;;;;;;;5045803;28;20758;-71
2022/06/14 03:41:24;;;;;;;6.35;4.15;;;;;;;;;;5063607;28;20045;-71
2022/06/14 03:43:51;;;;;;;5.25;4.30;;;;;;;;;;5063761;28;20073;-71
2022/06/14 03:46:20;;;;;;;5.00;4.50;;;;;;;;;;5063681;28;20028;-72
2022/06/14 03:48:48;;;;;;;6.65;4.18;;;;;;;;;;5063436;28;20049;-71
2022/06/14 03:51:26;;;;;;;5.45;4.47;;;;;;;;;;5062193;28;20028;-71
2022/06/14 03:54:11;;;;;;;6.55;4.38;;;;;;;;;;5062827;28;20036;-71
2022/06/14 03:56:49;;;;;;;5.13;4.53;;;;;;;;;;5063533;28;20025;-71
2022/06/14 03:59:34;;;;;;;6.43;4.05;;;;;;;;;;5063205;28;20036;-72
2022/06/14 04:02:09;;;;;;;5.07;4.57;;;;;;;;;;5061201;28;20033;-71
2022/06/14 04:04:45;;;;;;;6.05;4.00;;;;;;;;;;5062733;28;20020;-72
2022/06/14 04:07:34;;;;;;;9.90;4.20;;;;;;;;;;5063119;28;20032;-71
2022/06/14 04:10:13;;;;;;;7.45;3.65;;;;;;;;;;5051188;28;20040;-71
2022/06/14 04:12:48;;;;;;;5.25;4.25;;;;;;;;;;5062285;28;20074;-71
2022/06/14 04:15:14;;;;;;;8.45;4.97;;;;;;;;;;5062666;28;20032;-73
2022/06/14 04:17:40;;;;;;;6.80;4.97;;;;;;;;;;5062634;28;20103;-72
2022/06/14 04:20:11;;;;;;;6.72;5.40;;;;;;;;;;5062641;28;20021;-72
2022/06/14 04:22:43;;;;;;;6.43;4.57;;;;;;;;;;5062383;28;20024;-71
2022/06/14 04:25:31;;;;;;;9.05;4.97;;;;;;;;;;5057484;28;20036;-71
2022/06/14 04:28:01;;;;;;;7.22;4.22;;;;;;;;;;5062894;28;20025;-72
2022/06/14 04:30:30;;;;;;;5.32;4.60;;;;;;;;;;5062689;28;20028;-71
2022/06/14 04:33:02;;;;;;;7.03;4.47;;;;;;;;;;5060905;28;20268;-71
2022/06/14 04:35:40;;;;;;;9.90;5.65;;;;;;;;;;5061621;28;20024;-71
2022/06/14 04:38:13;;;;;;;5.55;4.03;;;;;;;;;;5062372;28;20040;-72
2022/06/14 04:40:48;;;;;;;6.20;3.67;;;;;;;;;;5062382;28;20017;-71
2022/06/14 04:43:30;;;;;;;6.43;5.78;;;;;;;;;;5044304;28;20558;-71
2022/06/14 04:46:02;;;;;;;7.00;5.78;;;;;;;;;;5062037;28;20082;-69
2022/06/14 04:48:31;;;;;;;7.97;5.78;;;;;;;;;;5061015;28;20029;-70
2022/06/14 04:51:03;;;;;;;7.38;5.80;;;;;;;;;;5062030;28;20031;-70
2022/06/14 04:53:34;;;;;;;7.55;5.85;;;;;;;;;;5060547;28;20136;-72
2022/06/14 04:56:06;;;;;;;7.47;6.43;;;;;;;;;;5059569;28;20067;-72
2022/06/14 04:58:38;;;;;;;9.43;5.68;;;;;;;;;;5061481;28;20499;-70
2022/06/14 05:01:07;;;;;;;8.75;6.03;;;;;;;;;;5060572;28;20131;-71
2022/06/14 05:03:33;;;;;;;7.05;5.53;;;;;;;;;;5061980;28;20036;-70
2022/06/14 05:05:59;;;;;;;9.20;5.40;;;;;;;;;;5061959;28;20486;-71
2022/06/14 05:08:29;;;;;;;7.32;5.20;;;;;;;;;;5062012;28;20020;-71
2022/06/14 05:11:01;;;;;;;7.55;4.57;;;;;;;;;;5059931;28;20031;-71
2022/06/14 05:13:32;;;;;;;7.00;4.75;;;;;;;;;;5060148;28;20028;-71
2022/06/14 05:16:02;;;;;;;7.38;4.75;;;;;;;;;;5061235;28;20631;-72
2022/06/14 05:18:34;;;;;;;11.65;4.40;;;;;;;;;;5057799;28;20029;-71
2022/06/14 05:21:30;;;;;;;8.98;5.22;;;;;;;;;;5061919;28;20027;-70
2022/06/14 05:23:57;;;;;;;5.85;4.95;;;;;;;;;;5030437;28;20037;-70
2022/06/14 05:26:37;;;;;;;6.85;4.80;;;;;;;;;;5060581;28;20023;-69
2022/06/14 05:29:03;;;;;;;9.55;5.07;;;;;;;;;;5059287;28;20472;-71
2022/06/14 05:31:36;;;;;;;9.23;5.63;;;;;;;;;;5060034;28;20032;-70
2022/06/14 05:34:15;;;;;;;6.97;6.07;;;;;;;;;;5059964;28;20036;-69
2022/06/14 05:36:47;;;;;;;11.30;6.07;;;;;;;;;;5057874;28;21728;-71
2022/06/14 05:39:16;;;;;;;9.60;5.43;;;;;;;;;;5056284;28;20110;-72
2022/06/14 05:41:42;;;;;;;9.50;6.57;;;;;;;;;;5059701;28;20028;-70
2022/06/14 05:44:10;;;;;;;11.48;6.85;;;;;;;;;;5070895;28;20012;-70
2022/06/14 05:46:41;;;;;;;16.05;6.88;;;;;;;;;;5074292;28;20043;-71
2022/06/14 05:49:09;;;;;;;8.63;6.35;;;;;;;;;;5071874;28;20027;-73
2022/06/14 05:51:48;;;;;;;8.70;6.10;;;;;;;;;;5059104;28;20033;-72
2022/06/14 05:54:34;;;;;;;7.72;6.47;;;;;;;;;;5061989;28;20060;-70
2022/06/14 05:57:05;;;;;;;10.25;6.10;;;;;;;;;;5062464;28;20028;-70
2022/06/14 05:59:41;;;;;;;9.70;6.85;;;;;;;;;;5078207;28;20051;-69
2022/06/14 06:02:07;;;;;;;12.30;6.78;;;;;;;;;;5079474;28;20162;-70
2022/06/14 06:04:37;;;;;;;9.80;5.90;;;;;;;;;;5079214;28;20100;-70
2022/06/14 06:07:06;;;;;;;8.23;5.50;;;;;;;;;;5077082;28;20051;-70
2022/06/14 06:09:38;;;;;;;10.23;6.03;;;;;;;;;;5076954;28;20531;-70
2022/06/14 06:12:08;;;;;;;6.68;5.22;;;;;;;;;;5035699;28;20435;-72
2022/06/14 06:14:35;;;;;;;7.97;5.47;;;;;;;;;;5075481;28;20052;-71
2022/06/14 06:17:07;;;;;;;6.90;5.03;;;;;;;;;;5066311;28;20074;-72
2022/06/14 06:19:36;;;;;;;11.68;5.22;;;;;;;;;;5071807;28;20031;-73
2022/06/14 06:22:08;;;;;;;9.50;6.70;;;;;;;;;;5058927;28;20609;-71
2022/06/14 06:24:34;;;;;;;10.75;6.78;;;;;;;;;;5061012;28;20041;-71
2022/06/14 06:27:02;;;;;;;11.75;5.80;;;;;;;;;;5059645;28;20017;-71
2022/06/14 06:29:41;;;;;;;7.28;5.28;;;;;;;;;;5060155;28;20017;-69
2022/06/14 06:32:08;;;;;;;5.60;5.07;;;;;;;;;;5058289;28;20025;-71
2022/06/14 06:34:34;;;;;;;7.45;5.30;;;;;;;;;;5060491;28;20040;-70
2022/06/14 06:37:14;;;;;;;9.27;5.70;;;;;;;;;;5043761;28;20039;-70
2022/06/14 06:39:48;;;;;;;8.38;4.97;;;;;;;;;;5059826;28;20063;-70
2022/06/14 06:42:21;;;;;;;6.40;5.03;;;;;;;;;;5062540;28;20031;-70
2022/06/14 06:44:47;;;;;;;5.80;4.72;;;;;;;;;;5061429;28;20028;-71
2022/06/14 06:47:13;;;;;;;6.50;4.53;;;;;;;;;;5063254;28;21273;-70
2022/06/14 06:50:00;;;;;;;8.30;5.03;;;;;;;;;;5072518;28;20024;-71
2022/06/14 06:52:45;;;;;;;7.03;4.75;;;;;;;;;;5070813;28;20032;-70
2022/06/14 06:55:17;;;;;;;5.55;4.30;;;;;;;;;;5072656;28;20040;-71
2022/06/14 06:57:46;;;;;;;6.38;3.80;;;;;;;;;;5071272;28;20025;-71
2022/06/14 07:00:13;;;;;;;6.50;4.00;;;;;;;;;;5077374;28;20624;-71
2022/06/14 07:02:42;;;;;;;5.63;3.65;;;;;;;;;;5071174;28;20044;-71
2022/06/14 07:05:14;;;;;;;4.95;3.45;;;;;;;;;;5075277;28;20027;-71
2022/06/14 07:07:53;;;;;;;3.58;3.28;;;;;;;;;;5069531;28;20035;-70
2022/06/14 07:10:22;;;;;;;4.93;3.45;;;;;;;;;;5076087;28;20016;-71
2022/06/14 07:12:52;;;;;;;4.53;3.05;;;;;;;;;;5069467;28;20632;-70
2022/06/14 07:15:21;;;;;;;4.95;3.40;;;;;;;;;;5071089;28;20028;-71
2022/06/14 07:18:10;;;;;;;3.60;3.13;;;;;;;;;;5061108;28;20037;-71
2022/06/14 07:20:37;;;;;;;4.32;3.80;;;;;;;;;;5022679;28;20064;-71
2022/06/14 07:23:15;;;;;;;6.82;3.33;;;;;;;;;;5066241;28;20740;-70
2022/06/14 07:25:50;;;;;;;4.38;3.58;;;;;;;;;;5058861;28;20028;-70
2022/06/14 07:28:18;;;;;;;4.90;4.00;;;;;;;;;;5060660;28;20024;-70
2022/06/14 07:30:49;;;;;;;5.70;3.90;;;;;;;;;;5060721;28;20031;-71
2022/06/14 07:33:17;;;;;;;8.93;4.15;;;;;;;;;;5062537;28;20040;-71
2022/06/14 07:35:45;;;;;;;6.07;4.78;;;;;;;;;;5062398;28;20238;-71
2022/06/14 07:38:37;;;;;;;10.38;4.80;;;;;;;;;;5062085;28;20056;-71
2022/06/14 07:41:07;;;;;;;7.22;4.78;;;;;;;;;;5054175;28;20094;-71
2022/06/14 07:43:38;;;;;;;5.22;4.25;;;;;;;;;;5058228;28;20044;-70
2022/06/14 07:46:04;;;;;;;;;;;;;;;;;;5061871;28;20031;-71
2022/06/14 07:48:45;;;;;;;7.30;3.80;;;;;;;;;;5062006;28;19905;-70
2022/06/14 07:51:19;;;;;;;4.55;4.10;;;;;;;;;;5060844;28;20596;-71
2022/06/14 07:53:45;;;;;;;6.13;5.53;;;;;;;;;;5060176;28;20532;-71
2022/06/14 07:56:16;;;;;;;5.25;4.15;;;;;;;;;;5059166;28;20085;-71
2022/06/14 07:58:47;;;;;;;5.18;4.60;;;;;;;;;;5062056;28;20029;-70
2022/06/14 08:01:16;;;;;;;7.97;5.23;;;;;;;;;;5059501;28;20029;-70
2022/06/14 08:03:52;;;;;;;6.45;4.28;;;;;;;;;;5065734;28;20029;-70
2022/06/14 08:06:26;;;;;;;6.25;3.67;;;;;;;;;;5065767;28;20028;-71
2022/06/14 08:09:00;;;;;;;8.35;4.20;;;;;;;;;;5061061;28;20041;-70
2022/06/14 08:11:33;;;;;;;4.22;3.28;;;;;;;;;;5056144;28;20713;-72
2022/06/14 08:14:03;;;;;;;4.05;3.03;;;;;;;;;;5061190;28;20044;-71
2022/06/14 08:16:29;;;;;;;3.65;3.08;;;;;;;;;;5056127;28;20024;-71
2022/06/14 08:19:04;;;;;;;4.43;3.60;;;;;;;;;;5069009;28;20028;-71
2022/06/14 08:21:40;;;;;;;4.95;3.58;;;;;;;;;;5060191;28;20035;-71
2022/06/14 08:24:13;;;;;;;3.83;3.35;;;;;;;;;;5060743;28;20024;-72
2022/06/14 08:26:46;;;;;;;6.18;3.63;;;;;;;;;;5063393;28;20035;-70
2022/06/14 08:29:39;;;;;;;3.80;3.47;;;;;;;;;;5066228;28;20810;-73
2022/06/14 08:32:32;;;;;;;3.70;3.25;;;;;;;;;;5058153;28;20046;-71
2022/06/14 08:35:04;;;;;;;6.18;3.40;;;;;;;;;;5052146;28;20046;-71
2022/06/14 08:38:00;;;;;;;4.90;3.22;;;;;;;;;;5060347;28;20024;-72
2022/06/14 08:40:40;;;;;;;3.90;3.50;;;;;;;;;;5026601;28;20044;-71
2022/06/14 08:43:11;;;;;;;4.37;3.67;;;;;;;;;;5066339;28;20016;-73
2022/06/14 08:45:42;;;;;;;3.97;3.40;;;;;;;;;;5051232;28;20031;-73
2022/06/14 08:48:27;;;;;;;7.18;3.45;;;;;;;;;;5040240;28;20017;-71
2022/06/14 08:50:53;;;;;;;4.80;3.90;;;;;;;;;;5065183;28;20021;-73
2022/06/14 08:53:19;;;;;;;4.78;3.78;;;;;;;;;;5067933;28;20041;-71
2022/06/14 08:55:54;;;;;;;7.05;4.07;;;;;;;;;;5068390;28;20024;-72
2022/06/14 08:58:42;;;;;;;4.50;3.95;;;;;;;;;;5055403;28;20032;-72
2022/06/14 09:01:12;;;;;;;3.55;3.22;;;;;;;;;;5052453;28;20021;-72
2022/06/14 09:04:03;;;;;;;6.40;4.00;;;;;;;;;;5060671;28;20028;-71
2022/06/14 09:06:33;;;;;;;4.40;3.27;;;;;;;;;;5054192;28;20037;-71
2022/06/14 09:09:18;;;;;;;3.75;3.28;;;;;;;;;;5053034;28;20028;-71
2022/06/14 09:12:03;;;;;;;4.10;3.50;;;;;;;;;;5065680;28;20137;-70
2022/06/14 09:14:44;;;;;;;5.45;3.17;;;;;;;;;;5069136;28;20062;-71
2022/06/14 09:17:13;;;;;;;5.15;3.83;;;;;;;;;;5069713;28;20051;-72
2022/06/14 09:19:48;;;;;;;5.75;3.63;;;;;;;;;;5073838;28;20051;-72
2022/06/14 09:22:14;;;;;;;4.30;3.50;;;;;;;;;;5075670;28;20027;-72
2022/06/14 09:24:52;;;;;;;4.40;3.25;;;;;;;;;;5061264;28;20467;-72
2022/06/14 09:27:37;;;;;;;4.07;3.30;;;;;;;;;;5047140;28;20035;-72
2022/06/14 09:30:20;;;;;;;4.82;3.70;;;;;;;;;;5052769;28;20035;-72
2022/06/14 09:33:11;;;;;;;7.78;4.03;;;;;;;;;;5053728;28;20078;-71
2022/06/14 09:35:49;;;;;;;5.30;4.07;;;;;;;;;;5056405;28;20043;-71
2022/06/14 09:38:28;;;;;;;4.68;3.40;;;;;;;;;;5056372;28;20269;-72
2022/06/14 09:40:59;;;;;;;8.73;3.70;;;;;;;;;;5057812;28;20081;-72
2022/06/14 09:43:25;;;;;;;5.60;3.20;;;;;;;;;;5058767;28;20113;-73
2022/06/14 09:45:57;;;;;;;4.38;3.05;;;;;;;;;;5051539;28;20025;-72
2022/06/14 09:48:23;;;;;;;5.93;3.13;;;;;;;;;;5040739;28;20028;-72
2022/06/14 09:51:08;;;;;;;4.75;3.30;;;;;;;;;;5044825;28;20036;-72
2022/06/14 09:53:37;;;;;;;4.40;3.03;;;;;;;;;;5057388;28;20033;-72
2022/06/14 09:56:06;;;;;;;5.38;3.00;;;;;;;;;;5055870;28;20418;-72
2022/06/14 09:58:32;;;;;;;4.90;2.95;;;;;;;;;;5056221;28;20041;-72
2022/06/14 10:01:05;;;;;;;5.85;3.03;;;;;;;;;;5057807;28;20072;-72
2022/06/14 10:03:34;;;;;;;3.67;2.75;;;;;;;;;;5056605;28;20036;-72
2022/06/14 10:06:19;;;;;;;3.58;2.60;;;;;;;;;;5057227;28;20032;-72
2022/06/14 10:08:48;;;;;;;3.88;2.97;;;;;;;;;;5060393;28;20027;-71
2022/06/14 10:11:14;;;;;;;6.15;2.67;;;;;;;;;;5061804;28;20127;-72
2022/06/14 10:13:47;;;;;;;3.28;2.60;;;;;;;;;;5064304;28;20037;-72
2022/06/14 10:16:32;;;;;;;4.10;2.53;;;;;;;;;;5045962;28;20024;-72
2022/06/14 10:19:04;;;;;;;4.68;3.00;;;;;;;;;;5064011;28;20023;-72
2022/06/14 10:21:43;;;;;;;3.85;2.80;;;;;;;;;;5062428;28;20060;-72
2022/06/14 10:24:19;;;;;;;4.18;2.30;;;;;;;;;;5063252;28;20511;-72
2022/06/14 10:30:15;;;;;;;3.53;2.53;;;;;;;;;;5062908;28;20039;-72
2022/06/14 10:32:50;;;;;;;5.75;2.92;;;;;;;;;;5060221;28;20067;-72
2022/06/14 10:35:23;;;;;;;7.60;3.10;;;;;;;;;;5057261;28;20036;-72
2022/06/14 10:38:07;;;;;;;2.92;2.55;;;;;;;;;;5054840;28;20041;-72
2022/06/14 10:40:34;;;;;;;8.38;6.13;;;;;;;;;;5049923;28;20024;-73
2022/06/14 10:43:00;;;;;;;21.60;9.85;;;;;;;;;;5058069;28;20056;-72
2022/06/14 10:45:42;;;;;;;12.32;8.07;;;;;;;;;;5077245;28;20034;-73
2022/06/14 10:48:09;;;;;;;5.43;3.22;;;;;;;;;;5056188;28;20149;-73
2022/06/14 10:50:41;;;;;;;4.03;2.88;;;;;;;;;;5065080;28;20112;-73
2022/06/14 10:53:19;;;;;;;5.38;3.05;;;;;;;;;;5050332;28;20464;-73
2022/06/14 10:56:07;;;;;;;3.13;2.80;;;;;;;;;;5047123;28;20012;-72
2022/06/14 10:58:56;;;;;;;3.67;2.80;;;;;;;;;;5056232;28;20127;-73
2022/06/14 11:01:42;;;;;;;3.30;2.47;;;;;;;;;;5039695;28;20043;-73
2022/06/14 11:04:08;;;;;;;3.55;2.90;;;;;;;;;;5057314;28;20028;-73
2022/06/14 11:06:53;;;;;;;2.50;2.30;;;;;;;;;;5060769;28;20017;-73
2022/06/14 11:09:21;;;;;;;3.53;2.53;;;;;;;;;;5059190;28;20103;-75
2022/06/14 11:12:06;;;;;;;3.92;2.65;;;;;;;;;;5060254;28;20021;-72
2022/06/14 11:14:32;;;;;;;4.63;2.50;;;;;;;;;;5060294;28;20368;-72
2022/06/14 11:17:17;;;;;;;2.65;2.42;;;;;;;;;;5063906;28;20094;-74
2022/06/14 11:20:03;;;;;;;2.50;2.30;;;;;;;;;;5063825;28;20024;-72
2022/06/14 11:22:36;;;;;;;4.70;2.75;;;;;;;;;;5023889;28;20700;-74
2022/06/14 11:25:10;;;;;;;3.95;2.80;;;;;;;;;;5063365;28;20652;-74
2022/06/14 11:27:36;;;;;;;3.40;2.88;;;;;;;;;;5061461;28;20029;-72
2022/06/14 11:30:18;;;;;;;6.78;2.92;;;;;;;;;;5061876;28;20021;-71
2022/06/14 11:33:02;;;;;;;6.32;2.47;;;;;;;;;;5064734;28;20055;-71
2022/06/14 11:35:34;;;;;;;3.72;3.08;;;;;;;;;;5072948;28;20024;-71
2022/06/14 11:38:16;;;;;;;3.75;2.80;;;;;;;;;;5065999;28;20079;-71
2022/06/14 11:40:42;;;;;;;;;;;;;;;;;;5061546;28;20021;-71
2022/06/14 11:43:14;;;;;;;5.10;2.80;;;;;;;;;;5060567;28;19912;-75
2022/06/14 11:45:46;;;;;;;3.55;2.85;;;;;;;;;;5061326;28;20020;-76
2022/06/14 11:48:18;;;;;;;3.83;2.80;;;;;;;;;;5048696;28;20033;-75
2022/06/14 11:50:57;;;;;;;2.65;2.22;;;;;;;;;;5068204;28;20574;-74
2022/06/14 11:53:26;;;;;;;3.60;2.60;;;;;;;;;;5050624;28;20036;-76
2022/06/14 11:55:55;;;;;;;3.92;2.70;;;;;;;;;;5070013;28;20524;-74
2022/06/14 11:58:21;;;;;;;3.53;2.85;;;;;;;;;;5064692;28;20051;-75
2022/06/14 12:00:50;;;;;;;3.20;2.85;;;;;;;;;;5064815;28;20025;-75
2022/06/14 12:03:52;;;;;;;5.43;2.88;;;;;;;;;;5064068;28;20017;-74
2022/06/14 12:06:18;;;;;;;;;;;;;;;;;;4963727;28;20050;-74
2022/06/14 12:08:56;;;;;;;2.90;2.60;;;;;;;;;;5044424;28;19908;-73
2022/06/14 12:11:27;;;;;;;4.10;2.70;;;;;;;;;;5072087;28;20037;-73
2022/06/14 12:13:56;;;;;;;5.10;2.90;;;;;;;;;;5067207;28;20040;-72
2022/06/14 12:16:36;;;;;;;8.50;2.50;;;;;;;;;;5062414;28;20073;-74
2022/06/14 12:19:17;;;;;;;4.68;2.55;;;;;;;;;;5062777;28;20052;-74
2022/06/14 12:21:48;;;;;;;2.85;2.40;;;;;;;;;;5061321;28;20024;-73
2022/06/14 12:26:34;;;;;;;2.58;2.38;;;;;;;;;;5060474;28;20025;-75
2022/06/14 12:27:09;;;;;;;2.85;2.60;;;;;;;;;;5060443;28;20080;-73
2022/06/14 12:29:39;;;;;;;2.65;2.40;;;;;;;;;;5062652;28;20111;-74
2022/06/14 12:32:05;;;;;;;3.65;2.67;;;;;;;;;;5062662;28;20028;-75
2022/06/14 12:34:37;;;;;;;3.50;2.33;;;;;;;;;;5062126;28;20041;-75
2022/06/14 12:37:18;;;;;;;2.72;2.38;;;;;;;;;;5063282;28;20031;-73
2022/06/14 12:39:47;;;;;;;3.10;2.63;;;;;;;;;;5043799;28;20044;-73
2022/06/14 12:42:13;;;;;;;2.55;2.35;;;;;;;;;;5063279;28;20086;-73
2022/06/14 12:44:48;;;;;;;4.05;2.42;;;;;;;;;;5063294;28;20021;-74
2022/06/14 12:47:18;;;;;;;2.60;2.40;;;;;;;;;;5062584;28;20024;-73
2022/06/14 12:49:48;;;;;;;2.83;2.63;;;;;;;;;;5062264;28;20063;-73
2022/06/14 12:52:16;;;;;;;4.65;2.65;;;;;;;;;;5071100;28;20027;-74
2022/06/14 12:54:45;;;;;;;2.95;2.65;;;;;;;;;;5071306;28;20043;-74
2022/06/14 12:57:12;;;;;;;4.35;2.80;;;;;;;;;;5068803;28;20017;-74
2022/06/14 12:59:47;;;;;;;3.20;2.90;;;;;;;;;;5061648;28;20033;-73
2022/06/14 13:02:16;;;;;;;3.85;2.67;;;;;;;;;;5062216;28;20020;-73
2022/06/14 13:04:42;;;;;;;2.80;2.50;;;;;;;;;;5063175;28;20025;-74
2022/06/14 13:07:08;;;;;;;3.95;2.22;;;;;;;;;;5059751;28;20029;-75
2022/06/14 13:09:40;;;;;;;2.97;2.50;;;;;;;;;;5048954;28;20029;-74
2022/06/14 13:12:09;;;;;;;4.03;2.58;;;;;;;;;;5050679;28;20283;-75
2022/06/14 13:14:48;;;;;;;2.90;2.60;;;;;;;;;;5047408;28;20032;-75
2022/06/14 13:17:32;;;;;;;2.28;2.08;;;;;;;;;;5057431;28;20484;-75
2022/06/14 13:20:16;;;;;;;2.83;2.63;;;;;;;;;;5056981;28;20043;-74
2022/06/14 13:22:43;;;;;;;4.72;2.72;;;;;;;;;;5062841;28;20031;-75
2022/06/14 13:25:18;;;;;;;3.00;2.40;;;;;;;;;;5063481;28;20464;-74
2022/06/14 13:27:44;;;;;;;4.15;2.53;;;;;;;;;;5045848;28;20479;-75
2022/06/14 13:30:11;;;;;;;2.83;2.38;;;;;;;;;;5061943;28;20028;-75
2022/06/14 13:32:43;;;;;;;2.55;2.30;;;;;;;;;;5063142;28;20031;-75
2022/06/14 13:35:26;;;;;;;3.20;2.67;;;;;;;;;;5063327;28;20162;-74
2022/06/14 13:38:05;;;;;;;3.85;2.67;;;;;;;;;;5063189;28;20082;-75
2022/06/14 13:40:31;;;;;;;3.03;2.42;;;;;;;;;;5061720;28;20063;-75
2022/06/14 13:43:15;;;;;;;2.97;2.78;;;;;;;;;;5062611;28;20031;-74
2022/06/14 13:45:43;;;;;;;4.15;2.78;;;;;;;;;;5061942;28;20614;-76
2022/06/14 13:48:09;;;;;;;5.20;2.80;;;;;;;;;;5061632;28;20039;-74
2022/06/14 13:50:41;;;;;;;3.42;2.60;;;;;;;;;;5063062;28;20028;-74
2022/06/14 13:53:19;;;;;;;4.22;2.45;;;;;;;;;;5062256;28;20484;-75
2022/06/14 13:55:50;;;;;;;3.67;2.22;;;;;;;;;;5063080;28;20069;-74
2022/06/14 13:58:16;;;;;;;;;;;;;;;;;;5045195;28;20048;-76
2022/06/14 14:00:42;;;;;;;5.40;2.80;;;;;;;;;;5061048;28;19951;-75
2022/06/14 14:03:34;;;;;;;5.75;2.67;;;;;;;;;;5063210;28;20028;-74
2022/06/14 14:06:33;;;;;;;3.65;2.63;;;;;;;;;;5027798;28;20052;-73
2022/06/14 14:09:05;;;;;;;3.25;2.53;;;;;;;;;;5009236;28;20060;-74
2022/06/14 14:11:44;;;;;;;4.82;2.63;;;;;;;;;;5062080;28;20082;-76
2022/06/14 14:14:20;;;;;;;5.05;2.58;;;;;;;;;;5064078;28;20032;-75
2022/06/14 14:17:01;;;;;;;5.05;3.08;;;;;;;;;;5045742;28;20078;-75
2022/06/14 14:19:36;;;;;;;2.97;2.40;;;;;;;;;;5063807;28;20024;-75
2022/06/14 14:22:08;;;;;;;4.05;2.78;;;;;;;;;;5053011;28;20508;-75
2022/06/14 14:24:34;;;;;;;3.42;2.83;;;;;;;;;;5061546;28;20025;-74
2022/06/14 14:27:06;;;;;;;4.97;2.65;;;;;;;;;;5062350;28;20516;-75
2022/06/14 14:29:41;;;;;;;3.63;2.70;;;;;;;;;;5062361;28;20103;-75
2022/06/14 14:32:07;;;;;;;3.45;2.40;;;;;;;;;;5062435;28;20032;-75
2022/06/14 14:34:43;;;;;;;3.33;2.78;;;;;;;;;;5061305;28;20045;-75
2022/06/14 14:37:24;;;;;;;4.78;2.70;;;;;;;;;;5062512;28;20035;-73
2022/06/14 14:39:54;;;;;;;2.63;2.40;;;;;;;;;;5062132;28;20785;-74
2022/06/14 14:42:24;;;;;;;3.75;2.30;;;;;;;;;;5061576;28;20027;-73
2022/06/14 14:44:59;;;;;;;3.20;2.40;;;;;;;;;;5062450;28;20024;-74
2022/06/14 14:47:35;;;;;;;3.88;2.55;;;;;;;;;;5044703;28;20404;-74
2022/06/14 14:50:04;;;;;;;4.30;2.60;;;;;;;;;;5058767;28;20245;-74
2022/06/14 14:52:33;;;;;;;2.50;2.00;;;;;;;;;;5062300;28;20064;-75
2022/06/14 14:55:05;;;;;;;2.55;2.22;;;;;;;;;;5060890;28;20510;-75
2022/06/14 14:57:42;;;;;;;2.78;2.50;;;;;;;;;;5063264;28;20036;-73
2022/06/14 15:00:17;;;;;;;4.45;2.45;;;;;;;;;;5064503;28;20028;-76
2022/06/14 15:05:44;;;;;;;3.22;2.50;;;;;;;;;;5065808;28;20043;-72
2022/06/14 15:08:26;;;;;;;4.88;2.95;;;;;;;;;;5065451;28;20024;-75
2022/06/14 15:10:52;;;;;;;4.97;2.40;;;;;;;;;;5065768;28;20032;-75
2022/06/14 15:13:39;;;;;;;2.45;2.22;;;;;;;;;;5070340;28;20607;-75
2022/06/14 15:16:14;;;;;;;3.20;2.28;;;;;;;;;;5052052;28;20037;-74
2022/06/14 15:21:31;;;;;;;3.60;2.40;;;;;;;;;;5065570;28;20082;-73
2022/06/14 15:24:02;;;;;;;4.28;2.35;;;;;;;;;;5063688;28;20475;-71
2022/06/14 15:26:29;;;;;;;3.38;2.30;;;;;;;;;;5045057;28;20017;-73
2022/06/14 15:29:04;;;;;;;3.60;2.60;;;;;;;;;;5065863;28;20789;-76
2022/06/14 15:31:30;;;;;;;2.60;2.40;;;;;;;;;;5064149;28;20035;-72
2022/06/14 15:33:57;;;;;;;3.20;2.60;;;;;;;;;;5057384;28;20036;-72